sensor_id;sensor_type;location;lat;lon;timestamp;P1;durP1;ratioP1;P2;durP2;ratioP2
10479;SDS011;12789;42.610;23.040;2023-06-10T00:01:35;9.88;;;4.60;;
10479;SDS011;12789;42.610;23.040;2023-06-10T00:04:02;9.07;;;4.68;;
10479;SDS011;12789;42.610;23.040;2023-06-10T00:06:29;8.68;;;5.35;;
10479;SDS011;12789;42.610;23.040;2023-06-10T00:09:03;7.47;;;4.70;;
10479;SDS011;12789;42.610;23.040;2023-06-10T00:11:31;7.82;;;4.88;;
10479;SDS011;12789;42.610;23.040;2023-06-10T00:13:57;5.35;;;4.65;;
10479;SDS011;12789;42.610;23.040;2023-06-10T00:16:24;5.38;;;3.88;;
10479;SDS011;12789;42.610;23.040;2023-06-10T00:18:51;5.75;;;4.40;;
10479;SDS011;12789;42.610;23.040;2023-06-10T00:21:17;6.05;;;4.38;;
10479;SDS011;12789;42.610;23.040;2023-06-10T00:23:44;9.40;;;4.20;;
10479;SDS011;12789;42.610;23.040;2023-06-10T00:26:13;7.95;;;4.43;;
10479;SDS011;12789;42.610;23.040;2023-06-10T00:28:39;6.57;;;4.85;;
10479;SDS011;12789;42.610;23.040;2023-06-10T00:31:06;9.00;;;5.30;;
10479;SDS011;12789;42.610;23.040;2023-06-10T00:33:32;5.88;;;5.28;;
10479;SDS011;12789;42.610;23.040;2023-06-10T00:35:59;9.48;;;5.40;;
10479;SDS011;12789;42.610;23.040;2023-06-10T00:38:25;9.98;;;5.78;;
10479;SDS011;12789;42.610;23.040;2023-06-10T00:40:52;11.45;;;5.93;;
10479;SDS011;12789;42.610;23.040;2023-06-10T00:43:21;7.38;;;6.07;;
10479;SDS011;12789;42.610;23.040;2023-06-10T00:45:48;8.52;;;6.25;;
10479;SDS011;12789;42.610;23.040;2023-06-10T00:48:15;9.52;;;6.30;;
10479;SDS011;12789;42.610;23.040;2023-06-10T00:50:42;11.45;;;6.13;;
10479;SDS011;12789;42.610;23.040;2023-06-10T00:53:12;8.23;;;6.07;;
10479;SDS011;12789;42.610;23.040;2023-06-10T00:55:38;6.68;;;5.93;;
10479;SDS011;12789;42.610;23.040;2023-06-10T00:58:05;8.30;;;5.43;;
10479;SDS011;12789;42.610;23.040;2023-06-10T01:00:33;11.95;;;6.60;;
10479;SDS011;12789;42.610;23.040;2023-06-10T01:03:00;11.57;;;6.43;;
10479;SDS011;12789;42.610;23.040;2023-06-10T01:05:27;9.52;;;6.63;;
10479;SDS011;12789;42.610;23.040;2023-06-10T01:07:56;8.63;;;6.63;;
10479;SDS011;12789;42.610;23.040;2023-06-10T01:10:28;9.77;;;6.68;;
10479;SDS011;12789;42.610;23.040;2023-06-10T01:12:58;12.10;;;6.53;;
10479;SDS011;12789;42.610;23.040;2023-06-10T01:15:27;9.02;;;5.65;;
10479;SDS011;12789;42.610;23.040;2023-06-10T01:17:58;8.20;;;5.32;;
10479;SDS011;12789;42.610;23.040;2023-06-10T01:20:25;6.15;;;5.55;;
10479;SDS011;12789;42.610;23.040;2023-06-10T01:22:54;6.13;;;4.97;;
10479;SDS011;12789;42.610;23.040;2023-06-10T01:25:23;5.70;;;5.13;;
10479;SDS011;12789;42.610;23.040;2023-06-10T01:27:53;9.75;;;5.32;;
10479;SDS011;12789;42.610;23.040;2023-06-10T01:30:20;8.50;;;4.50;;
10479;SDS011;12789;42.610;23.040;2023-06-10T01:32:50;4.43;;;4.03;;
10479;SDS011;12789;42.610;23.040;2023-06-10T01:35:17;4.35;;;3.88;;
10479;SDS011;12789;42.610;23.040;2023-06-10T01:37:46;6.10;;;4.25;;
10479;SDS011;12789;42.610;23.040;2023-06-10T01:40:14;4.80;;;4.10;;
10479;SDS011;12789;42.610;23.040;2023-06-10T01:42:41;6.55;;;4.30;;
10479;SDS011;12789;42.610;23.040;2023-06-10T01:45:08;5.75;;;4.32;;
10479;SDS011;12789;42.610;23.040;2023-06-10T01:47:35;5.78;;;4.60;;
10479;SDS011;12789;42.610;23.040;2023-06-10T01:50:01;5.63;;;4.55;;
10479;SDS011;12789;42.610;23.040;2023-06-10T01:52:28;6.28;;;4.30;;
10479;SDS011;12789;42.610;23.040;2023-06-10T01:54:54;7.10;;;4.47;;
10479;SDS011;12789;42.610;23.040;2023-06-10T01:57:23;5.95;;;4.65;;
10479;SDS011;12789;42.610;23.040;2023-06-10T01:59:50;7.95;;;4.40;;
10479;SDS011;12789;42.610;23.040;2023-06-10T02:02:16;7.65;;;4.32;;
10479;SDS011;12789;42.610;23.040;2023-06-10T02:04:43;5.05;;;4.32;;
10479;SDS011;12789;42.610;23.040;2023-06-10T02:07:09;4.38;;;3.97;;
10479;SDS011;12789;42.610;23.040;2023-06-10T02:09:37;5.10;;;4.63;;
10479;SDS011;12789;42.610;23.040;2023-06-10T02:12:04;6.15;;;4.30;;
10479;SDS011;12789;42.610;23.040;2023-06-10T02:14:32;5.20;;;4.10;;
10479;SDS011;12789;42.610;23.040;2023-06-10T02:16:59;6.30;;;4.47;;
10479;SDS011;12789;42.610;23.040;2023-06-10T02:19:26;4.80;;;4.40;;
10479;SDS011;12789;42.610;23.040;2023-06-10T02:21:53;5.28;;;4.20;;
10479;SDS011;12789;42.610;23.040;2023-06-10T02:24:20;6.55;;;4.28;;
10479;SDS011;12789;42.610;23.040;2023-06-10T02:26:46;6.30;;;3.92;;
10479;SDS011;12789;42.610;23.040;2023-06-10T02:29:13;4.38;;;4.07;;
10479;SDS011;12789;42.610;23.040;2023-06-10T02:31:42;6.93;;;4.20;;
10479;SDS011;12789;42.610;23.040;2023-06-10T02:34:08;5.00;;;4.53;;
10479;SDS011;12789;42.610;23.040;2023-06-10T02:36:35;6.75;;;4.10;;
10479;SDS011;12789;42.610;23.040;2023-06-10T02:39:02;4.88;;;4.50;;
10479;SDS011;12789;42.610;23.040;2023-06-10T02:41:29;5.10;;;4.20;;
10479;SDS011;12789;42.610;23.040;2023-06-10T02:43:56;4.47;;;4.10;;
10479;SDS011;12789;42.610;23.040;2023-06-10T02:46:22;5.72;;;4.15;;
10479;SDS011;12789;42.610;23.040;2023-06-10T02:48:55;5.15;;;4.60;;
10479;SDS011;12789;42.610;23.040;2023-06-10T02:51:26;6.25;;;4.82;;
10479;SDS011;12789;42.610;23.040;2023-06-10T02:53:53;5.20;;;4.70;;
10479;SDS011;12789;42.610;23.040;2023-06-10T02:56:19;7.55;;;5.05;;
10479;SDS011;12789;42.610;23.040;2023-06-10T02:58:47;6.38;;;4.95;;
10479;SDS011;12789;42.610;23.040;2023-06-10T03:01:17;6.53;;;4.80;;
10479;SDS011;12789;42.610;23.040;2023-06-10T03:03:48;7.07;;;5.05;;
10479;SDS011;12789;42.610;23.040;2023-06-10T03:06:20;7.25;;;4.82;;
10479;SDS011;12789;42.610;23.040;2023-06-10T03:08:49;12.05;;;5.22;;
10479;SDS011;12789;42.610;23.040;2023-06-10T03:11:16;7.88;;;5.28;;
10479;SDS011;12789;42.610;23.040;2023-06-10T03:13:44;7.82;;;5.90;;
10479;SDS011;12789;42.610;23.040;2023-06-10T03:16:12;6.38;;;5.22;;
10479;SDS011;12789;42.610;23.040;2023-06-10T03:18:44;7.93;;;5.40;;
10479;SDS011;12789;42.610;23.040;2023-06-10T03:21:13;6.18;;;5.68;;
10479;SDS011;12789;42.610;23.040;2023-06-10T03:23:43;6.80;;;6.10;;
10479;SDS011;12789;42.610;23.040;2023-06-10T03:26:12;7.35;;;5.95;;
10479;SDS011;12789;42.610;23.040;2023-06-10T03:28:47;7.15;;;5.80;;
10479;SDS011;12789;42.610;23.040;2023-06-10T03:31:17;7.82;;;5.40;;
10479;SDS011;12789;42.610;23.040;2023-06-10T03:33:47;6.60;;;5.78;;
10479;SDS011;12789;42.610;23.040;2023-06-10T03:36:18;12.60;;;6.18;;
10479;SDS011;12789;42.610;23.040;2023-06-10T03:38:48;6.50;;;5.78;;
10479;SDS011;12789;42.610;23.040;2023-06-10T03:41:17;6.53;;;5.78;;
10479;SDS011;12789;42.610;23.040;2023-06-10T03:43:48;8.85;;;6.60;;
10479;SDS011;12789;42.610;23.040;2023-06-10T03:46:19;10.73;;;5.75;;
10479;SDS011;12789;42.610;23.040;2023-06-10T03:48:53;9.38;;;5.90;;
10479;SDS011;12789;42.610;23.040;2023-06-10T03:51:25;6.90;;;6.13;;
10479;SDS011;12789;42.610;23.040;2023-06-10T03:53:54;8.40;;;6.13;;
10479;SDS011;12789;42.610;23.040;2023-06-10T03:56:24;11.77;;;6.30;;
10479;SDS011;12789;42.610;23.040;2023-06-10T03:58:55;12.18;;;6.70;;
10479;SDS011;12789;42.610;23.040;2023-06-10T04:01:25;9.60;;;6.35;;
10479;SDS011;12789;42.610;23.040;2023-06-10T04:03:53;11.45;;;6.72;;
10479;SDS011;12789;42.610;23.040;2023-06-10T04:06:20;13.50;;;6.57;;
10479;SDS011;12789;42.610;23.040;2023-06-10T04:08:47;12.90;;;6.68;;
10479;SDS011;12789;42.610;23.040;2023-06-10T04:11:16;10.85;;;6.30;;
10479;SDS011;12789;42.610;23.040;2023-06-10T04:13:42;12.95;;;6.78;;
10479;SDS011;12789;42.610;23.040;2023-06-10T04:16:09;16.08;;;6.32;;
10479;SDS011;12789;42.610;23.040;2023-06-10T04:18:36;11.90;;;7.03;;
10479;SDS011;12789;42.610;23.040;2023-06-10T04:21:03;15.93;;;8.30;;
10479;SDS011;12789;42.610;23.040;2023-06-10T04:23:31;27.88;;;8.98;;
10479;SDS011;12789;42.610;23.040;2023-06-10T04:25:57;23.75;;;8.75;;
10479;SDS011;12789;42.610;23.040;2023-06-10T04:28:26;23.83;;;9.25;;
10479;SDS011;12789;42.610;23.040;2023-06-10T04:30:53;22.17;;;8.60;;
10479;SDS011;12789;42.610;23.040;2023-06-10T04:33:20;21.42;;;8.70;;
10479;SDS011;12789;42.610;23.040;2023-06-10T04:35:47;25.08;;;8.75;;
10479;SDS011;12789;42.610;23.040;2023-06-10T04:38:13;21.45;;;8.90;;
10479;SDS011;12789;42.610;23.040;2023-06-10T04:40:40;19.20;;;9.10;;
10479;SDS011;12789;42.610;23.040;2023-06-10T04:43:07;15.82;;;8.48;;
10479;SDS011;12789;42.610;23.040;2023-06-10T04:45:35;13.20;;;7.85;;
10479;SDS011;12789;42.610;23.040;2023-06-10T04:48:02;19.15;;;7.20;;
10479;SDS011;12789;42.610;23.040;2023-06-10T04:50:29;18.38;;;8.05;;
10479;SDS011;12789;42.610;23.040;2023-06-10T04:52:58;19.42;;;7.53;;
10479;SDS011;12789;42.610;23.040;2023-06-10T04:55:27;17.70;;;7.88;;
10479;SDS011;12789;42.610;23.040;2023-06-10T04:57:54;16.08;;;7.93;;
10479;SDS011;12789;42.610;23.040;2023-06-10T05:00:21;18.02;;;8.20;;
10479;SDS011;12789;42.610;23.040;2023-06-10T05:02:49;19.55;;;8.52;;
10479;SDS011;12789;42.610;23.040;2023-06-10T05:05:17;18.30;;;9.20;;
10479;SDS011;12789;42.610;23.040;2023-06-10T05:07:43;21.10;;;8.48;;
10479;SDS011;12789;42.610;23.040;2023-06-10T05:10:10;20.00;;;8.25;;
10479;SDS011;12789;42.610;23.040;2023-06-10T05:12:38;23.58;;;7.80;;
10479;SDS011;12789;42.610;23.040;2023-06-10T05:15:05;20.15;;;7.55;;
10479;SDS011;12789;42.610;23.040;2023-06-10T05:17:32;19.95;;;7.43;;
10479;SDS011;12789;42.610;23.040;2023-06-10T05:20:01;19.60;;;7.90;;
10479;SDS011;12789;42.610;23.040;2023-06-10T05:22:28;23.38;;;8.48;;
10479;SDS011;12789;42.610;23.040;2023-06-10T05:24:55;16.52;;;7.65;;
10479;SDS011;12789;42.610;23.040;2023-06-10T05:27:22;16.40;;;8.25;;
10479;SDS011;12789;42.610;23.040;2023-06-10T05:29:49;22.52;;;7.63;;
10479;SDS011;12789;42.610;23.040;2023-06-10T05:32:18;12.63;;;6.22;;
10479;SDS011;12789;42.610;23.040;2023-06-10T05:34:44;12.02;;;7.07;;
10479;SDS011;12789;42.610;23.040;2023-06-10T05:37:13;10.93;;;6.50;;
10479;SDS011;12789;42.610;23.040;2023-06-10T05:39:40;8.27;;;6.03;;
10479;SDS011;12789;42.610;23.040;2023-06-10T05:42:08;9.55;;;5.88;;
10479;SDS011;12789;42.610;23.040;2023-06-10T05:44:36;7.75;;;5.75;;
10479;SDS011;12789;42.610;23.040;2023-06-10T05:47:02;8.35;;;5.75;;
10479;SDS011;12789;42.610;23.040;2023-06-10T05:49:29;9.38;;;5.90;;
10479;SDS011;12789;42.610;23.040;2023-06-10T05:51:56;10.70;;;6.22;;
10479;SDS011;12789;42.610;23.040;2023-06-10T05:54:25;12.25;;;6.45;;
10479;SDS011;12789;42.610;23.040;2023-06-10T05:56:52;11.38;;;5.65;;
10479;SDS011;12789;42.610;23.040;2023-06-10T05:59:19;8.80;;;5.80;;
10479;SDS011;12789;42.610;23.040;2023-06-10T06:01:48;9.10;;;5.32;;
10479;SDS011;12789;42.610;23.040;2023-06-10T06:04:15;8.55;;;5.60;;
10479;SDS011;12789;42.610;23.040;2023-06-10T06:06:41;10.27;;;6.03;;
10479;SDS011;12789;42.610;23.040;2023-06-10T06:09:08;6.68;;;4.93;;
10479;SDS011;12789;42.610;23.040;2023-06-10T06:11:37;6.68;;;5.90;;
10479;SDS011;12789;42.610;23.040;2023-06-10T06:14:03;10.63;;;5.88;;
10479;SDS011;12789;42.610;23.040;2023-06-10T06:16:30;7.38;;;5.68;;
10479;SDS011;12789;42.610;23.040;2023-06-10T06:18:57;8.60;;;5.50;;
10479;SDS011;12789;42.610;23.040;2023-06-10T06:21:24;10.50;;;6.28;;
10479;SDS011;12789;42.610;23.040;2023-06-10T06:23:50;10.73;;;5.82;;
10479;SDS011;12789;42.610;23.040;2023-06-10T06:26:18;7.38;;;6.00;;
10479;SDS011;12789;42.610;23.040;2023-06-10T06:28:47;8.15;;;5.70;;
10479;SDS011;12789;42.610;23.040;2023-06-10T06:31:15;10.55;;;5.53;;
10479;SDS011;12789;42.610;23.040;2023-06-10T06:33:41;10.77;;;5.53;;
10479;SDS011;12789;42.610;23.040;2023-06-10T06:36:08;6.07;;;4.80;;
10479;SDS011;12789;42.610;23.040;2023-06-10T06:38:36;14.18;;;4.90;;
10479;SDS011;12789;42.610;23.040;2023-06-10T06:41:02;8.60;;;4.30;;
10479;SDS011;12789;42.610;23.040;2023-06-10T06:43:31;9.93;;;4.95;;
10479;SDS011;12789;42.610;23.040;2023-06-10T06:46:00;8.48;;;3.97;;
10479;SDS011;12789;42.610;23.040;2023-06-10T06:48:26;4.43;;;3.70;;
10479;SDS011;12789;42.610;23.040;2023-06-10T06:50:53;11.60;;;4.22;;
10479;SDS011;12789;42.610;23.040;2023-06-10T06:53:21;5.57;;;4.32;;
10479;SDS011;12789;42.610;23.040;2023-06-10T06:55:48;4.55;;;4.13;;
10479;SDS011;12789;42.610;23.040;2023-06-10T06:58:15;6.47;;;3.90;;
10479;SDS011;12789;42.610;23.040;2023-06-10T07:00:41;5.93;;;3.90;;
10479;SDS011;12789;42.610;23.040;2023-06-10T07:03:09;5.07;;;3.95;;
10479;SDS011;12789;42.610;23.040;2023-06-10T07:05:36;4.00;;;3.70;;
10479;SDS011;12789;42.610;23.040;2023-06-10T07:08:03;5.78;;;3.67;;
10479;SDS011;12789;42.610;23.040;2023-06-10T07:10:31;3.75;;;3.47;;
10479;SDS011;12789;42.610;23.040;2023-06-10T07:12:58;4.22;;;3.85;;
10479;SDS011;12789;42.610;23.040;2023-06-10T07:15:25;5.53;;;3.70;;
10479;SDS011;12789;42.610;23.040;2023-06-10T07:17:53;4.13;;;3.78;;
10479;SDS011;12789;42.610;23.040;2023-06-10T07:20:22;5.78;;;3.85;;
10479;SDS011;12789;42.610;23.040;2023-06-10T07:22:48;6.00;;;3.70;;
10479;SDS011;12789;42.610;23.040;2023-06-10T07:25:15;5.55;;;3.70;;
10479;SDS011;12789;42.610;23.040;2023-06-10T07:27:42;3.85;;;3.20;;
10479;SDS011;12789;42.610;23.040;2023-06-10T07:30:09;7.20;;;3.25;;
10479;SDS011;12789;42.610;23.040;2023-06-10T07:32:36;5.05;;;3.42;;
10479;SDS011;12789;42.610;23.040;2023-06-10T07:35:03;9.23;;;3.65;;
10479;SDS011;12789;42.610;23.040;2023-06-10T07:37:32;3.58;;;3.28;;
10479;SDS011;12789;42.610;23.040;2023-06-10T07:39:58;5.80;;;3.45;;
10479;SDS011;12789;42.610;23.040;2023-06-10T07:42:25;6.20;;;3.22;;
10479;SDS011;12789;42.610;23.040;2023-06-10T07:44:52;10.55;;;3.88;;
10479;SDS011;12789;42.610;23.040;2023-06-10T07:47:18;4.60;;;3.38;;
10479;SDS011;12789;42.610;23.040;2023-06-10T07:49:45;3.33;;;3.00;;
10479;SDS011;12789;42.610;23.040;2023-06-10T07:52:12;4.38;;;3.20;;
10479;SDS011;12789;42.610;23.040;2023-06-10T07:54:40;3.65;;;3.28;;
10479;SDS011;12789;42.610;23.040;2023-06-10T07:57:07;2.83;;;2.63;;
10479;SDS011;12789;42.610;23.040;2023-06-10T07:59:36;4.57;;;3.15;;
10479;SDS011;12789;42.610;23.040;2023-06-10T08:02:10;7.10;;;3.20;;
10479;SDS011;12789;42.610;23.040;2023-06-10T08:04:36;3.30;;;3.10;;
10479;SDS011;12789;42.610;23.040;2023-06-10T08:07:03;11.57;;;8.95;;
10479;SDS011;12789;42.610;23.040;2023-06-10T08:09:30;4.75;;;3.83;;
10479;SDS011;12789;42.610;23.040;2023-06-10T08:11:58;5.05;;;3.78;;
10479;SDS011;12789;42.610;23.040;2023-06-10T08:14:25;4.40;;;3.00;;
10479;SDS011;12789;42.610;23.040;2023-06-10T08:16:51;7.07;;;4.63;;
10479;SDS011;12789;42.610;23.040;2023-06-10T08:19:19;3.20;;;2.90;;
10479;SDS011;12789;42.610;23.040;2023-06-10T08:21:45;2.40;;;2.20;;
10479;SDS011;12789;42.610;23.040;2023-06-10T08:24:12;2.90;;;2.50;;
10479;SDS011;12789;42.610;23.040;2023-06-10T08:26:41;3.28;;;2.53;;
10479;SDS011;12789;42.610;23.040;2023-06-10T08:29:11;4.45;;;2.35;;
10479;SDS011;12789;42.610;23.040;2023-06-10T08:31:39;2.67;;;1.92;;
10479;SDS011;12789;42.610;23.040;2023-06-10T08:34:07;3.17;;;2.10;;
10479;SDS011;12789;42.610;23.040;2023-06-10T08:36:33;2.83;;;2.10;;
10479;SDS011;12789;42.610;23.040;2023-06-10T08:39:00;2.60;;;2.13;;
10479;SDS011;12789;42.610;23.040;2023-06-10T08:41:28;4.90;;;2.20;;
10479;SDS011;12789;42.610;23.040;2023-06-10T08:43:58;3.13;;;2.20;;
10479;SDS011;12789;42.610;23.040;2023-06-10T08:46:28;4.45;;;2.33;;
10479;SDS011;12789;42.610;23.040;2023-06-10T08:48:57;6.57;;;2.03;;
10479;SDS011;12789;42.610;23.040;2023-06-10T08:51:27;3.17;;;2.13;;
10479;SDS011;12789;42.610;23.040;2023-06-10T08:54:03;3.28;;;2.28;;
10479;SDS011;12789;42.610;23.040;2023-06-10T08:56:30;3.30;;;2.67;;
10479;SDS011;12789;42.610;23.040;2023-06-10T08:58:59;3.15;;;2.15;;
10479;SDS011;12789;42.610;23.040;2023-06-10T09:01:28;4.45;;;2.10;;
10479;SDS011;12789;42.610;23.040;2023-06-10T09:03:55;2.38;;;1.92;;
10479;SDS011;12789;42.610;23.040;2023-06-10T09:06:22;8.18;;;2.00;;
10479;SDS011;12789;42.610;23.040;2023-06-10T09:08:49;1.98;;;1.80;;
10479;SDS011;12789;42.610;23.040;2023-06-10T09:11:16;3.50;;;1.98;;
10479;SDS011;12789;42.610;23.040;2023-06-10T09:13:43;4.03;;;1.60;;
10479;SDS011;12789;42.610;23.040;2023-06-10T09:16:09;3.38;;;1.73;;
10479;SDS011;12789;42.610;23.040;2023-06-10T09:18:39;2.50;;;1.83;;
10479;SDS011;12789;42.610;23.040;2023-06-10T09:21:06;3.45;;;1.90;;
10479;SDS011;12789;42.610;23.040;2023-06-10T09:23:33;2.53;;;2.20;;
10479;SDS011;12789;42.610;23.040;2023-06-10T09:26:00;2.20;;;1.75;;
10479;SDS011;12789;42.610;23.040;2023-06-10T09:28:29;1.67;;;1.58;;
10479;SDS011;12789;42.610;23.040;2023-06-10T09:31:01;2.55;;;2.00;;
10479;SDS011;12789;42.610;23.040;2023-06-10T09:33:28;1.92;;;1.70;;
10479;SDS011;12789;42.610;23.040;2023-06-10T09:35:57;2.45;;;1.60;;
10479;SDS011;12789;42.610;23.040;2023-06-10T09:38:29;2.78;;;1.80;;
10479;SDS011;12789;42.610;23.040;2023-06-10T09:40:56;3.65;;;1.85;;
10479;SDS011;12789;42.610;23.040;2023-06-10T09:43:22;2.40;;;1.77;;
10479;SDS011;12789;42.610;23.040;2023-06-10T09:45:49;2.20;;;1.88;;
10479;SDS011;12789;42.610;23.040;2023-06-10T09:48:18;6.10;;;1.90;;
10479;SDS011;12789;42.610;23.040;2023-06-10T09:50:45;1.92;;;1.77;;
10479;SDS011;12789;42.610;23.040;2023-06-10T09:53:13;3.70;;;2.15;;
10479;SDS011;12789;42.610;23.040;2023-06-10T09:55:40;3.42;;;1.60;;
10479;SDS011;12789;42.610;23.040;2023-06-10T09:58:07;23.80;;;19.38;;
10479;SDS011;12789;42.610;23.040;2023-06-10T10:00:34;1.73;;;1.63;;
10479;SDS011;12789;42.610;23.040;2023-06-10T10:03:01;5.32;;;2.30;;
10479;SDS011;12789;42.610;23.040;2023-06-10T10:05:28;3.20;;;2.13;;
10479;SDS011;12789;42.610;23.040;2023-06-10T10:07:55;3.45;;;2.10;;
10479;SDS011;12789;42.610;23.040;2023-06-10T10:10:24;3.05;;;2.00;;
10479;SDS011;12789;42.610;23.040;2023-06-10T10:12:52;1.88;;;1.77;;
10479;SDS011;12789;42.610;23.040;2023-06-10T10:15:20;3.55;;;1.85;;
10479;SDS011;12789;42.610;23.040;2023-06-10T10:17:52;2.53;;;1.83;;
10479;SDS011;12789;42.610;23.040;2023-06-10T10:20:20;1.83;;;1.73;;
10479;SDS011;12789;42.610;23.040;2023-06-10T10:22:47;2.00;;;1.90;;
10479;SDS011;12789;42.610;23.040;2023-06-10T10:25:23;2.28;;;2.15;;
10479;SDS011;12789;42.610;23.040;2023-06-10T10:27:56;3.33;;;2.00;;
10479;SDS011;12789;42.610;23.040;2023-06-10T10:30:25;2.08;;;1.90;;
10479;SDS011;12789;42.610;23.040;2023-06-10T10:32:53;2.42;;;1.90;;
10479;SDS011;12789;42.610;23.040;2023-06-10T10:35:21;3.53;;;2.05;;
10479;SDS011;12789;42.610;23.040;2023-06-10T10:37:49;5.75;;;2.53;;
10479;SDS011;12789;42.610;23.040;2023-06-10T10:40:17;2.15;;;1.98;;
10479;SDS011;12789;42.610;23.040;2023-06-10T10:42:44;2.60;;;1.95;;
10479;SDS011;12789;42.610;23.040;2023-06-10T10:45:13;3.45;;;2.17;;
10479;SDS011;12789;42.610;23.040;2023-06-10T10:47:40;6.15;;;2.47;;
10479;SDS011;12789;42.610;23.040;2023-06-10T10:50:14;3.63;;;1.95;;
10479;SDS011;12789;42.610;23.040;2023-06-10T10:52:51;2.42;;;2.22;;
10479;SDS011;12789;42.610;23.040;2023-06-10T10:55:18;2.53;;;2.15;;
10479;SDS011;12789;42.610;23.040;2023-06-10T10:57:45;3.60;;;2.00;;
10479;SDS011;12789;42.610;23.040;2023-06-10T11:00:25;2.35;;;2.17;;
10479;SDS011;12789;42.610;23.040;2023-06-10T11:02:53;4.50;;;2.08;;
10479;SDS011;12789;42.610;23.040;2023-06-10T11:05:30;4.40;;;2.38;;
10479;SDS011;12789;42.610;23.040;2023-06-10T11:07:58;2.55;;;2.35;;
10479;SDS011;12789;42.610;23.040;2023-06-10T11:10:34;4.43;;;2.22;;
10479;SDS011;12789;42.610;23.040;2023-06-10T11:13:05;3.15;;;2.20;;
10479;SDS011;12789;42.610;23.040;2023-06-10T11:15:37;3.45;;;2.00;;
10479;SDS011;12789;42.610;23.040;2023-06-10T11:18:14;3.45;;;2.30;;
10479;SDS011;12789;42.610;23.040;2023-06-10T11:20:42;2.10;;;1.95;;
10479;SDS011;12789;42.610;23.040;2023-06-10T11:23:08;2.95;;;2.28;;
10479;SDS011;12789;42.610;23.040;2023-06-10T11:25:38;4.78;;;1.92;;
10479;SDS011;12789;42.610;23.040;2023-06-10T11:28:08;2.85;;;2.30;;
10479;SDS011;12789;42.610;23.040;2023-06-10T11:30:45;2.60;;;1.75;;
10479;SDS011;12789;42.610;23.040;2023-06-10T11:33:14;2.45;;;2.25;;
10479;SDS011;12789;42.610;23.040;2023-06-10T11:35:41;2.13;;;2.03;;
10479;SDS011;12789;42.610;23.040;2023-06-10T11:38:07;3.03;;;2.15;;
10479;SDS011;12789;42.610;23.040;2023-06-10T11:40:34;4.90;;;2.40;;
10479;SDS011;12789;42.610;23.040;2023-06-10T11:43:01;1.98;;;1.83;;
10479;SDS011;12789;42.610;23.040;2023-06-10T11:45:27;2.60;;;2.40;;
10479;SDS011;12789;42.610;23.040;2023-06-10T11:47:59;3.47;;;2.13;;
10479;SDS011;12789;42.610;23.040;2023-06-10T11:50:29;2.33;;;2.03;;
10479;SDS011;12789;42.610;23.040;2023-06-10T11:52:56;3.10;;;2.15;;
10479;SDS011;12789;42.610;23.040;2023-06-10T11:55:23;2.55;;;2.42;;
10479;SDS011;12789;42.610;23.040;2023-06-10T11:57:52;3.95;;;2.63;;
10479;SDS011;12789;42.610;23.040;2023-06-10T12:00:22;5.30;;;2.65;;
10479;SDS011;12789;42.610;23.040;2023-06-10T12:02:54;2.58;;;2.40;;
10479;SDS011;12789;42.610;23.040;2023-06-10T12:05:24;2.70;;;2.35;;
10479;SDS011;12789;42.610;23.040;2023-06-10T12:10:32;3.85;;;2.88;;
10479;SDS011;12789;42.610;23.040;2023-06-10T12:12:58;4.63;;;2.53;;
10479;SDS011;12789;42.610;23.040;2023-06-10T12:15:26;3.22;;;2.38;;
10479;SDS011;12789;42.610;23.040;2023-06-10T12:17:54;3.38;;;2.67;;
10479;SDS011;12789;42.610;23.040;2023-06-10T12:20:26;6.55;;;2.70;;
10479;SDS011;12789;42.610;23.040;2023-06-10T12:22:52;3.55;;;2.90;;
10479;SDS011;12789;42.610;23.040;2023-06-10T12:25:23;3.05;;;2.38;;
10479;SDS011;12789;42.610;23.040;2023-06-10T12:27:51;3.00;;;2.70;;
10479;SDS011;12789;42.610;23.040;2023-06-10T12:30:21;2.70;;;2.50;;
10479;SDS011;12789;42.610;23.040;2023-06-10T12:32:48;2.80;;;2.60;;
10479;SDS011;12789;42.610;23.040;2023-06-10T12:35:16;2.70;;;2.50;;
10479;SDS011;12789;42.610;23.040;2023-06-10T12:37:55;2.95;;;2.65;;
10479;SDS011;12789;42.610;23.040;2023-06-10T12:40:25;2.88;;;2.67;;
10479;SDS011;12789;42.610;23.040;2023-06-10T12:42:52;2.47;;;2.28;;
10479;SDS011;12789;42.610;23.040;2023-06-10T12:45:25;6.85;;;2.70;;
10479;SDS011;12789;42.610;23.040;2023-06-10T12:48:03;3.60;;;2.83;;
10479;SDS011;12789;42.610;23.040;2023-06-10T12:50:31;3.25;;;2.67;;
10479;SDS011;12789;42.610;23.040;2023-06-10T12:52:59;2.42;;;2.30;;
10479;SDS011;12789;42.610;23.040;2023-06-10T12:55:26;5.47;;;2.65;;
10479;SDS011;12789;42.610;23.040;2023-06-10T12:57:53;3.17;;;2.40;;
10479;SDS011;12789;42.610;23.040;2023-06-10T13:00:21;2.78;;;2.58;;
10479;SDS011;12789;42.610;23.040;2023-06-10T13:02:51;3.75;;;3.00;;
10479;SDS011;12789;42.610;23.040;2023-06-10T13:05:17;5.97;;;2.70;;
10479;SDS011;12789;42.610;23.040;2023-06-10T13:07:45;6.85;;;2.50;;
10479;SDS011;12789;42.610;23.040;2023-06-10T13:10:13;6.13;;;2.33;;
10479;SDS011;12789;42.610;23.040;2023-06-10T13:12:41;16.75;;;3.22;;
10479;SDS011;12789;42.610;23.040;2023-06-10T13:15:08;11.95;;;3.42;;
10479;SDS011;12789;42.610;23.040;2023-06-10T13:17:35;10.82;;;2.83;;
10479;SDS011;12789;42.610;23.040;2023-06-10T13:20:02;14.05;;;2.95;;
10479;SDS011;12789;42.610;23.040;2023-06-10T13:22:29;9.65;;;2.90;;
10479;SDS011;12789;42.610;23.040;2023-06-10T13:24:57;4.50;;;3.00;;
10479;SDS011;12789;42.610;23.040;2023-06-10T13:27:26;4.88;;;2.85;;
10479;SDS011;12789;42.610;23.040;2023-06-10T13:29:53;12.85;;;3.50;;
10479;SDS011;12789;42.610;23.040;2023-06-10T13:32:19;6.80;;;3.13;;
10479;SDS011;12789;42.610;23.040;2023-06-10T13:34:46;6.22;;;3.17;;
10479;SDS011;12789;42.610;23.040;2023-06-10T13:37:12;3.47;;;3.15;;
10479;SDS011;12789;42.610;23.040;2023-06-10T13:39:39;5.82;;;3.70;;
10479;SDS011;12789;42.610;23.040;2023-06-10T13:42:06;4.30;;;3.13;;
10479;SDS011;12789;42.610;23.040;2023-06-10T13:44:34;4.28;;;3.35;;
10479;SDS011;12789;42.610;23.040;2023-06-10T13:47:02;5.28;;;3.63;;
10479;SDS011;12789;42.610;23.040;2023-06-10T13:49:28;6.05;;;4.10;;
10479;SDS011;12789;42.610;23.040;2023-06-10T13:51:56;5.10;;;3.65;;
10479;SDS011;12789;42.610;23.040;2023-06-10T13:54:23;7.72;;;3.88;;
10479;SDS011;12789;42.610;23.040;2023-06-10T13:56:50;6.00;;;3.45;;
10479;SDS011;12789;42.610;23.040;2023-06-10T13:59:18;7.20;;;3.53;;
10479;SDS011;12789;42.610;23.040;2023-06-10T14:01:56;5.00;;;3.38;;
10479;SDS011;12789;42.610;23.040;2023-06-10T14:04:31;4.82;;;3.83;;
10479;SDS011;12789;42.610;23.040;2023-06-10T14:07:01;4.70;;;3.85;;
10479;SDS011;12789;42.610;23.040;2023-06-10T14:09:28;4.18;;;3.53;;
10479;SDS011;12789;42.610;23.040;2023-06-10T14:11:56;3.70;;;3.40;;
10479;SDS011;12789;42.610;23.040;2023-06-10T14:14:26;4.00;;;3.28;;
10479;SDS011;12789;42.610;23.040;2023-06-10T14:16:57;4.45;;;3.33;;
10479;SDS011;12789;42.610;23.040;2023-06-10T14:19:32;3.92;;;3.60;;
10479;SDS011;12789;42.610;23.040;2023-06-10T14:22:01;4.47;;;3.47;;
10479;SDS011;12789;42.610;23.040;2023-06-10T14:24:29;3.83;;;3.42;;
10479;SDS011;12789;42.610;23.040;2023-06-10T14:26:59;3.60;;;3.30;;
10479;SDS011;12789;42.610;23.040;2023-06-10T14:29:28;3.47;;;3.17;;
10479;SDS011;12789;42.610;23.040;2023-06-10T14:32:05;5.65;;;3.72;;
10479;SDS011;12789;42.610;23.040;2023-06-10T14:34:37;4.07;;;3.25;;
10479;SDS011;12789;42.610;23.040;2023-06-10T14:37:07;3.72;;;3.10;;
10479;SDS011;12789;42.610;23.040;2023-06-10T14:39:37;3.78;;;2.72;;